Iguape, Brazil
Current Conditions -  °F | °C
As of 6:00 AM on Tuesday 21 Oct 2014 (Local Time) from SBSP Reporting Station
Overcast Overcast  
Wind Chill: 61°   Ceiling: 1700
Heat Index: 61°   Visibility: 6mi
Dew Point: 54°   Wind: 16mph
Humidity: 77%   Direction: 160°SSE
Pressure: 30.15"   Gusts: NA
Location:  24.72°S, 47.57°W
Report Text: SBSP 210800Z 16014KT 9999 FEW013 BKN017 OVC030 16/12 Q1021
Loading
Personal Weather Stations






























Interactive Weather Map
Tropical Storm Tracking
New forecast layout! Learn more

10-Day Weather Forecast

Advertisements
Track Severe Weather on mobile